Accueil
METAR-TAF:

METAR-TAF

Aéroports :

Aéroport de Vérone

Vérone, Italie

latitude: 45-23N, longitude: 010-52E, altitude: 67 m

Observation

Le bulletin a été fait il y a 40 minutes, à 14:20 UTC
Vent 9 kt de ouest
Température 6°C
Humidité 56%
Pression 1023 hPa
Visibilité: 9000 m

METAR: LIPX 221420Z 26009KT 9000 NSC 06/M02 Q1023

Heure: 16:00 (15:00 UTC)

Prévision

Le bulletin a été fait il y a 4 heures et 0 minutes, à 11:00 UTC
Prévision valable du 22 à 12 UTC au 23 à 12 UTC
Vent 12 kt de ouest
Visibilité: 8000 m
Evoluant progressivement
du 22 à 15 UTC au 22 à 17 UTC
Vent 5 kt de direction variable
Temporairement
du 22 à 22 UTC au 23 à 08 UTC
Visibilité: 1500 m
bancs de brouillard

TAF: LIPX 221100Z 2212/2312 26012KT 8000 NSC BECMG 2215/2217 VRB05KT TEMPO 2222/2308 1500 BCFG

Observations et prévisions météorologiques de plus de 4000 aéroports (messages METAR et TAF).

Les stations disponibles sont représentées par des disques jaunes et rouges sur la carte.

Passer la souris dessus pour voir le nom de la station.

Cliquer dessus pour voir les observations et prévisions météorologiques.

Pour changer de carte: cliquez sur les boutons verts avec une croix noire pour zoomer, sur le bouton vert avec un tiret pour effectuer un zoom arrière, ou sur les flèches vertes pour les cartes adjacentes.


METAR-TAF: